createdAt,value
2023-01-11T00:00:16.009Z,5.5
2023-01-11T00:05:16.065Z,5.5
2023-01-11T00:10:15.412Z,5.5
2023-01-11T00:15:15.668Z,5.5
2023-01-11T00:20:15.728Z,5.6
2023-01-11T00:25:15.665Z,5.6
2023-01-11T00:30:15.647Z,5.6
2023-01-11T00:35:15.615Z,5.6
2023-01-11T00:40:15.685Z,5.7
2023-01-11T00:45:15.885Z,5.7
2023-01-11T00:50:16.060Z,5.7
2023-01-11T00:55:15.280Z,5.7
2023-01-11T01:00:15.249Z,5.8
2023-01-11T01:05:15.262Z,5.8
2023-01-11T01:10:15.814Z,5.8
2023-01-11T01:15:15.731Z,5.8
2023-01-11T01:20:15.758Z,5.8
2023-01-11T01:25:15.837Z,5.8
2023-01-11T01:30:15.872Z,5.9
2023-01-11T01:35:15.899Z,5.9
2023-01-11T01:40:15.526Z,5.9
2023-01-11T01:45:15.538Z,5.9
2023-01-11T01:50:15.438Z,5.9
2023-01-11T01:55:15.409Z,5.9
2023-01-11T02:00:15.270Z,6
2023-01-11T02:05:15.318Z,6
2023-01-11T02:10:15.353Z,6.1
2023-01-11T02:15:15.346Z,6.1
2023-01-11T02:20:15.488Z,6.1
2023-01-11T02:25:15.397Z,6.1
2023-01-11T02:30:15.317Z,6.2
2023-01-11T02:35:15.337Z,6.2
2023-01-11T02:40:15.785Z,6.3
2023-01-11T02:45:15.652Z,6.3
2023-01-11T02:50:15.610Z,6.3
2023-01-11T02:55:16.003Z,6.3
2023-01-11T03:00:15.338Z,6.4
2023-01-11T03:05:15.600Z,6.4
2023-01-11T03:10:15.867Z,6.4
2023-01-11T03:15:15.999Z,6.4
2023-01-11T03:20:15.605Z,6.6
2023-01-11T03:25:15.775Z,6.6
2023-01-11T03:30:15.881Z,6.7
2023-01-11T03:35:15.898Z,6.7
2023-01-11T03:40:15.889Z,6.7
2023-01-11T03:45:15.921Z,6.7
2023-01-11T03:50:16.161Z,6.8
2023-01-11T03:55:15.371Z,6.8
2023-01-11T04:00:15.459Z,6.9
2023-01-11T04:05:15.603Z,6.9
2023-01-11T04:10:15.726Z,6.9
2023-01-11T04:15:15.476Z,6.9
2023-01-11T04:20:16.007Z,7
2023-01-11T04:25:15.462Z,7
2023-01-11T04:30:15.833Z,7
2023-01-11T04:35:16.339Z,7
2023-01-11T04:40:16.024Z,7.1
2023-01-11T04:45:16.163Z,7.1
2023-01-11T04:50:15.501Z,7.2
2023-01-11T04:55:15.841Z,7.2
2023-01-11T05:00:16.044Z,7.2
2023-01-11T05:05:16.165Z,7.2
2023-01-11T05:10:16.877Z,7.3
2023-01-11T05:15:16.212Z,7.3
2023-01-11T05:20:16.251Z,7.4
2023-01-11T05:25:15.418Z,7.4
2023-01-11T05:30:15.589Z,7.5
2023-01-11T05:35:15.811Z,7.5
2023-01-11T05:40:16.023Z,7.6
2023-01-11T05:45:16.011Z,7.6
2023-01-11T05:50:16.026Z,7.6
2023-01-11T05:55:16.163Z,7.6
2023-01-11T06:00:16.135Z,7.7
2023-01-11T06:05:15.659Z,7.7
2023-01-11T06:10:15.618Z,7.7
2023-01-11T06:15:15.867Z,7.7
2023-01-11T06:20:23.919Z,7.8
2023-01-11T06:25:16.421Z,7.8
2023-01-11T06:30:16.368Z,7.8
2023-01-11T06:35:16.256Z,7.8
2023-01-11T06:40:15.497Z,7.9
2023-01-11T06:45:15.768Z,7.9
2023-01-11T06:50:15.967Z,8
2023-01-11T06:55:16.330Z,8
2023-01-11T07:00:16.317Z,8.1
2023-01-11T07:05:18.869Z,8.1
2023-01-11T07:10:16.381Z,8.1
2023-01-11T07:15:15.837Z,8.1
2023-01-11T07:20:16.024Z,8.2
2023-01-11T07:25:15.915Z,8.2
2023-01-11T07:30:15.966Z,8.3
2023-01-11T07:35:16.196Z,8.3
2023-01-11T07:40:16.068Z,8.3
2023-01-11T07:45:16.223Z,8.3
2023-01-11T07:50:16.064Z,8.4
2023-01-11T07:55:16.448Z,8.4
2023-01-11T08:00:16.396Z,8.4
2023-01-11T08:05:15.681Z,8.4
2023-01-11T08:10:15.708Z,8.5
2023-01-11T08:15:15.767Z,8.5
2023-01-11T08:20:15.440Z,8.6
2023-01-11T08:25:16.212Z,8.6
2023-01-11T08:30:16.181Z,8.7
2023-01-11T08:35:15.802Z,8.7
2023-01-11T08:40:15.858Z,8.7
2023-01-11T08:45:15.834Z,8.7
2023-01-11T08:50:16.091Z,8.8
2023-01-11T08:55:16.073Z,8.8
2023-01-11T09:00:16.119Z,8.9
2023-01-11T09:06:04.585Z,8.9
2023-01-11T09:10:16.311Z,9.1
2023-01-11T09:15:16.347Z,9.1
2023-01-11T09:20:16.383Z,9.2
2023-01-11T09:25:15.631Z,9.2
2023-01-11T09:30:15.854Z,9.3
2023-01-11T09:35:15.666Z,9.3
2023-01-11T09:40:16.029Z,9.3
2023-01-11T09:45:16.721Z,9.3
2023-01-11T09:50:15.708Z,9.4
2023-01-11T09:55:15.705Z,9.4
2023-01-11T10:00:16.292Z,9.4
2023-01-11T10:05:16.711Z,9.4
2023-01-11T10:18:32.762Z,9.4
2023-01-11T10:20:15.671Z,9.4
2023-01-11T10:25:15.615Z,9.4
2023-01-11T10:30:15.539Z,9.4
2023-01-11T10:35:15.789Z,9.4
2023-01-11T10:40:15.862Z,9.4
2023-01-11T10:45:16.437Z,9.4
2023-01-11T10:50:16.354Z,9.5
2023-01-11T10:55:16.508Z,9.5
2023-01-11T11:00:15.693Z,9.5
2023-01-11T11:05:16.000Z,9.5
2023-01-11T11:10:16.394Z,9.5
2023-01-11T11:15:16.297Z,9.5
2023-01-11T11:20:16.140Z,9.4
2023-01-11T11:25:16.164Z,9.4
2023-01-11T11:30:15.550Z,9.4
2023-01-11T11:35:15.649Z,9.4
2023-01-11T11:40:16.317Z,9.4
2023-01-11T11:45:16.348Z,9.4
2023-01-11T11:50:18.830Z,9.3
2023-01-11T11:55:16.713Z,9.3
2023-01-11T12:00:15.860Z,9.3
2023-01-11T12:05:16.082Z,9.3
2023-01-11T12:10:16.550Z,9.3
2023-01-11T12:15:16.540Z,9.3
2023-01-11T12:20:16.486Z,9.2
2023-01-11T12:25:16.376Z,9.2
2023-01-11T12:30:19.070Z,9.2
2023-01-11T12:35:16.029Z,9.2
2023-01-11T12:40:15.801Z,9.1
2023-01-11T12:45:16.706Z,9.1
2023-01-11T12:50:15.787Z,9.1
2023-01-11T12:55:16.069Z,9.1
2023-01-11T13:00:16.153Z,9.1
2023-01-11T13:05:16.201Z,9.1
2023-01-11T13:10:16.046Z,9
2023-01-11T13:15:16.071Z,9
2023-01-11T13:20:16.330Z,9
2023-01-11T13:25:16.235Z,9
2023-01-11T13:30:16.260Z,9
2023-01-11T13:35:16.405Z,9
2023-01-11T13:40:16.236Z,9
2023-01-11T13:45:16.075Z,9
2023-01-11T13:50:16.073Z,9.1
2023-01-11T13:55:25.138Z,9.1
2023-01-11T14:00:16.719Z,9
2023-01-11T14:05:16.572Z,9
2023-01-11T14:10:16.164Z,8.8
2023-01-11T14:15:16.716Z,8.8
2023-01-11T14:20:16.040Z,8.5
2023-01-11T14:25:15.952Z,8.5
2023-01-11T14:30:15.851Z,8.3
2023-01-11T14:35:16.535Z,8.3
2023-01-11T14:40:16.726Z,8.2
2023-01-11T14:45:15.717Z,8.2
2023-01-11T14:50:16.479Z,8.1
2023-01-11T14:55:16.055Z,8.1
2023-01-11T15:00:16.089Z,8.1
2023-01-11T15:05:16.350Z,8.1
2023-01-11T15:10:15.950Z,8
2023-01-11T15:15:15.883Z,8
2023-01-11T15:20:16.388Z,7.9
2023-01-11T15:25:16.288Z,7.9
2023-01-11T15:30:16.575Z,7.9
2023-01-11T15:35:16.151Z,7.9
2023-01-11T15:40:16.543Z,7.9
2023-01-11T15:45:16.246Z,7.9
2023-01-11T15:50:16.567Z,7.8
2023-01-11T15:55:16.565Z,7.8
2023-01-11T16:00:16.597Z,7.8
2023-01-11T16:05:16.495Z,7.8
2023-01-11T16:10:16.554Z,7.7
2023-01-11T16:15:16.983Z,7.7
2023-01-11T16:20:16.224Z,7.7
2023-01-11T16:25:16.319Z,7.7
2023-01-11T16:30:16.293Z,7.5
2023-01-11T16:35:16.643Z,7.5
2023-01-11T16:40:16.725Z,7.4
2023-01-11T16:45:16.639Z,7.4
2023-01-11T16:50:16.558Z,7.2
2023-01-11T16:55:15.792Z,7.2
2023-01-11T17:00:16.792Z,7.1
2023-01-11T17:05:16.642Z,7.1
2023-01-11T17:10:16.684Z,6.9
2023-01-11T17:15:16.951Z,6.9
2023-01-11T17:20:16.104Z,6.8
2023-01-11T17:25:16.038Z,6.8
2023-01-11T17:30:16.003Z,6.6
2023-01-11T17:35:16.146Z,6.6
2023-01-11T17:40:16.048Z,6.5
2023-01-11T17:45:15.878Z,6.5
2023-01-11T17:50:16.703Z,6.4
2023-01-11T17:55:16.793Z,6.4
2023-01-11T18:00:16.655Z,6.4
2023-01-11T18:05:16.467Z,6.4
2023-01-11T18:10:16.645Z,6.5
2023-01-11T18:15:16.844Z,6.5
2023-01-11T18:20:16.866Z,6.5
2023-01-11T18:25:16.683Z,6.5
2023-01-11T18:30:16.564Z,6.5
2023-01-11T18:35:18.655Z,6.5
2023-01-11T18:40:16.651Z,6.6
2023-01-11T18:45:16.542Z,6.6
2023-01-11T18:50:19.341Z,6.5
2023-01-11T18:55:16.555Z,6.5
2023-01-11T19:00:16.680Z,6.5
2023-01-11T19:05:16.657Z,6.5
2023-01-11T19:10:16.719Z,6.6
2023-01-11T19:15:16.417Z,6.6
2023-01-11T19:20:16.278Z,6.6
2023-01-11T19:25:16.354Z,6.6
2023-01-11T19:30:16.442Z,6.5
2023-01-11T19:35:16.617Z,6.5
2023-01-11T19:40:16.611Z,6.4
2023-01-11T19:45:16.508Z,6.4
2023-01-11T19:50:16.523Z,6.4
2023-01-11T19:55:16.737Z,6.4
2023-01-11T20:00:16.560Z,6.4
2023-01-11T20:05:16.448Z,6.4
2023-01-11T20:10:16.501Z,6.3
2023-01-11T20:15:16.410Z,6.3
2023-01-11T20:20:16.405Z,6.2
2023-01-11T20:25:16.291Z,6.2
2023-01-11T20:30:16.146Z,6.2
2023-01-11T20:35:16.023Z,6.2
2023-01-11T20:40:15.980Z,6.1
2023-01-11T20:45:16.573Z,6.1
2023-01-11T20:50:16.545Z,6.1
2023-01-11T20:55:16.657Z,6.1
2023-01-11T21:00:16.600Z,6
2023-01-11T21:05:16.832Z,6
2023-01-11T21:10:16.934Z,6
2023-01-11T21:15:16.842Z,6
2023-01-11T21:20:16.441Z,6
2023-01-11T21:25:16.920Z,6
2023-01-11T21:30:16.929Z,5.9
2023-01-11T21:35:15.989Z,5.9
2023-01-11T21:40:16.653Z,5.9
2023-01-11T21:45:16.317Z,5.9
2023-01-11T21:50:16.277Z,5.8
2023-01-11T21:55:16.673Z,5.8
2023-01-11T22:00:16.709Z,5.8
2023-01-11T22:05:22.248Z,5.8
2023-01-11T22:10:16.405Z,5.8
2023-01-11T22:15:16.500Z,5.8
2023-01-11T22:20:16.372Z,5.8
2023-01-11T22:25:16.327Z,5.8
2023-01-11T22:30:16.277Z,5.8
2023-01-11T22:35:16.816Z,5.8
2023-01-11T22:40:16.426Z,5.9
2023-01-11T22:45:16.377Z,5.9
2023-01-11T22:50:16.787Z,6
2023-01-11T22:55:16.944Z,6
2023-01-11T23:00:16.148Z,6.2
2023-01-11T23:05:16.239Z,6.2
2023-01-11T23:10:16.209Z,6.3
2023-01-11T23:15:16.245Z,6.3
2023-01-11T23:20:16.812Z,6.4
2023-01-11T23:25:16.694Z,6.4
2023-01-11T23:30:16.632Z,6.4
2023-01-11T23:35:16.507Z,6.4
2023-01-11T23:40:16.201Z,6.5
2023-01-11T23:45:16.051Z,6.5
2023-01-11T23:50:16.992Z,6.6
2023-01-11T23:55:17.015Z,6.6
